sensor_id;sensor_type;location;lat;lon;timestamp;temperature;humidity
11387;DHT22;5748;53.102;8.456;2023-01-24T00:01:19;8.10;67.30
11387;DHT22;5748;53.102;8.456;2023-01-24T00:03:48;8.00;67.20
11387;DHT22;5748;53.102;8.456;2023-01-24T00:06:17;8.00;67.20
11387;DHT22;5748;53.102;8.456;2023-01-24T00:08:44;8.00;67.10
11387;DHT22;5748;53.102;8.456;2023-01-24T00:11:12;7.90;67.00
11387;DHT22;5748;53.102;8.456;2023-01-24T00:13:39;8.00;67.20
11387;DHT22;5748;53.102;8.456;2023-01-24T00:16:08;8.00;67.20
11387;DHT22;5748;53.102;8.456;2023-01-24T00:18:36;8.00;67.20
11387;DHT22;5748;53.102;8.456;2023-01-24T00:21:07;8.00;67.20
11387;DHT22;5748;53.102;8.456;2023-01-24T00:23:37;8.00;67.20
11387;DHT22;5748;53.102;8.456;2023-01-24T00:26:05;8.00;67.20
11387;DHT22;5748;53.102;8.456;2023-01-24T00:28:32;8.00;67.10
11387;DHT22;5748;53.102;8.456;2023-01-24T00:30:59;8.00;67.20
11387;DHT22;5748;53.102;8.456;2023-01-24T00:33:27;8.00;67.20
11387;DHT22;5748;53.102;8.456;2023-01-24T00:35:54;8.00;67.20
11387;DHT22;5748;53.102;8.456;2023-01-24T00:38:23;8.00;67.10
11387;DHT22;5748;53.102;8.456;2023-01-24T00:40:50;8.00;67.10
11387;DHT22;5748;53.102;8.456;2023-01-24T00:43:17;8.00;67.20
11387;DHT22;5748;53.102;8.456;2023-01-24T00:45:45;8.00;67.00
11387;DHT22;5748;53.102;8.456;2023-01-24T00:48:13;8.00;67.20
11387;DHT22;5748;53.102;8.456;2023-01-24T00:50:40;8.00;67.00
11387;DHT22;5748;53.102;8.456;2023-01-24T00:53:07;7.90;67.00
11387;DHT22;5748;53.102;8.456;2023-01-24T00:55:40;7.90;66.90
11387;DHT22;5748;53.102;8.456;2023-01-24T00:58:08;7.90;67.00
11387;DHT22;5748;53.102;8.456;2023-01-24T01:00:48;7.90;67.00
11387;DHT22;5748;53.102;8.456;2023-01-24T01:03:16;7.90;67.10
11387;DHT22;5748;53.102;8.456;2023-01-24T01:05:45;8.20;67.40
11387;DHT22;5748;53.102;8.456;2023-01-24T01:08:12;7.90;67.20
11387;DHT22;5748;53.102;8.456;2023-01-24T01:10:40;7.90;67.20
11387;DHT22;5748;53.102;8.456;2023-01-24T01:13:09;8.00;67.30
11387;DHT22;5748;53.102;8.456;2023-01-24T01:15:38;7.90;67.30
11387;DHT22;5748;53.102;8.456;2023-01-24T01:18:20;8.00;67.20
11387;DHT22;5748;53.102;8.456;2023-01-24T01:20:50;7.90;67.10
11387;DHT22;5748;53.102;8.456;2023-01-24T01:23:18;8.10;67.20
11387;DHT22;5748;53.102;8.456;2023-01-24T01:25:46;7.90;67.10
11387;DHT22;5748;53.102;8.456;2023-01-24T01:28:13;7.90;67.10
11387;DHT22;5748;53.102;8.456;2023-01-24T01:30:40;7.90;67.10
11387;DHT22;5748;53.102;8.456;2023-01-24T01:33:07;7.90;67.10
11387;DHT22;5748;53.102;8.456;2023-01-24T01:35:34;7.90;67.20
11387;DHT22;5748;53.102;8.456;2023-01-24T01:38:01;8.00;67.20
11387;DHT22;5748;53.102;8.456;2023-01-24T01:40:28;7.90;67.10
11387;DHT22;5748;53.102;8.456;2023-01-24T01:42:57;7.90;67.00
11387;DHT22;5748;53.102;8.456;2023-01-24T01:45:38;7.90;67.00
11387;DHT22;5748;53.102;8.456;2023-01-24T01:48:24;7.90;67.00
11387;DHT22;5748;53.102;8.456;2023-01-24T01:51:15;7.90;67.00
11387;DHT22;5748;53.102;8.456;2023-01-24T01:53:46;7.90;67.00
11387;DHT22;5748;53.102;8.456;2023-01-24T01:56:21;7.90;67.00
11387;DHT22;5748;53.102;8.456;2023-01-24T01:58:52;7.90;67.10
11387;DHT22;5748;53.102;8.456;2023-01-24T02:01:22;8.00;67.10
11387;DHT22;5748;53.102;8.456;2023-01-24T02:03:57;8.20;67.20
11387;DHT22;5748;53.102;8.456;2023-01-24T02:06:46;7.90;67.00
11387;DHT22;5748;53.102;8.456;2023-01-24T02:09:20;7.90;66.90
11387;DHT22;5748;53.102;8.456;2023-01-24T02:11:50;7.90;66.90
11387;DHT22;5748;53.102;8.456;2023-01-24T02:14:21;7.90;66.80
11387;DHT22;5748;53.102;8.456;2023-01-24T02:17:30;7.90;66.90
11387;DHT22;5748;53.102;8.456;2023-01-24T02:20:22;7.90;66.60
11387;DHT22;5748;53.102;8.456;2023-01-24T02:23:01;7.90;66.60
11387;DHT22;5748;53.102;8.456;2023-01-24T02:25:44;8.00;66.70
11387;DHT22;5748;53.102;8.456;2023-01-24T02:31:54;7.90;66.50
11387;DHT22;5748;53.102;8.456;2023-01-24T02:34:23;7.90;66.60
11387;DHT22;5748;53.102;8.456;2023-01-24T02:36:52;7.90;66.70
11387;DHT22;5748;53.102;8.456;2023-01-24T02:39:30;8.00;66.70
11387;DHT22;5748;53.102;8.456;2023-01-24T02:42:02;8.00;66.70
11387;DHT22;5748;53.102;8.456;2023-01-24T02:44:40;7.90;66.60
11387;DHT22;5748;53.102;8.456;2023-01-24T02:47:09;8.00;66.70
11387;DHT22;5748;53.102;8.456;2023-01-24T02:49:36;8.00;66.60
11387;DHT22;5748;53.102;8.456;2023-01-24T02:52:04;8.00;66.60
11387;DHT22;5748;53.102;8.456;2023-01-24T02:54:48;8.00;66.60
11387;DHT22;5748;53.102;8.456;2023-01-24T02:57:23;8.00;66.50
11387;DHT22;5748;53.102;8.456;2023-01-24T03:00:11;7.90;66.20
11387;DHT22;5748;53.102;8.456;2023-01-24T03:02:39;7.90;66.30
11387;DHT22;5748;53.102;8.456;2023-01-24T03:05:07;8.00;66.40
11387;DHT22;5748;53.102;8.456;2023-01-24T03:07:34;7.90;66.40
11387;DHT22;5748;53.102;8.456;2023-01-24T03:10:10;7.90;66.30
11387;DHT22;5748;53.102;8.456;2023-01-24T03:16:04;7.90;66.10
11387;DHT22;5748;53.102;8.456;2023-01-24T03:18:49;7.90;66.30
11387;DHT22;5748;53.102;8.456;2023-01-24T03:21:34;7.90;66.30
11387;DHT22;5748;53.102;8.456;2023-01-24T03:24:19;7.90;66.00
11387;DHT22;5748;53.102;8.456;2023-01-24T03:27:03;7.90;65.80
11387;DHT22;5748;53.102;8.456;2023-01-24T03:29:48;7.90;65.80
11387;DHT22;5748;53.102;8.456;2023-01-24T03:32:44;7.90;65.80
11387;DHT22;5748;53.102;8.456;2023-01-24T03:35:29;7.90;65.80
11387;DHT22;5748;53.102;8.456;2023-01-24T03:37:57;7.90;66.00
11387;DHT22;5748;53.102;8.456;2023-01-24T03:40:41;7.80;65.90
11387;DHT22;5748;53.102;8.456;2023-01-24T03:43:27;7.90;66.00
11387;DHT22;5748;53.102;8.456;2023-01-24T03:45:54;7.80;65.80
11387;DHT22;5748;53.102;8.456;2023-01-24T03:48:22;7.90;66.10
11387;DHT22;5748;53.102;8.456;2023-01-24T03:50:52;7.80;65.80
11387;DHT22;5748;53.102;8.456;2023-01-24T03:53:37;7.90;66.00
11387;DHT22;5748;53.102;8.456;2023-01-24T03:56:05;7.90;65.80
11387;DHT22;5748;53.102;8.456;2023-01-24T03:58:32;7.90;65.80
11387;DHT22;5748;53.102;8.456;2023-01-24T04:00:59;7.90;65.70
11387;DHT22;5748;53.102;8.456;2023-01-24T04:03:27;7.90;65.70
11387;DHT22;5748;53.102;8.456;2023-01-24T04:06:01;8.20;65.80
11387;DHT22;5748;53.102;8.456;2023-01-24T04:08:28;7.80;65.40
11387;DHT22;5748;53.102;8.456;2023-01-24T04:10:55;7.80;65.60
11387;DHT22;5748;53.102;8.456;2023-01-24T04:13:23;7.80;65.70
11387;DHT22;5748;53.102;8.456;2023-01-24T04:15:50;7.90;65.80
11387;DHT22;5748;53.102;8.456;2023-01-24T04:18:17;7.80;65.80
11387;DHT22;5748;53.102;8.456;2023-01-24T04:20:45;7.80;65.80
11387;DHT22;5748;53.102;8.456;2023-01-24T04:23:12;8.20;66.20
11387;DHT22;5748;53.102;8.456;2023-01-24T04:25:39;7.90;65.90
11387;DHT22;5748;53.102;8.456;2023-01-24T04:28:06;7.80;65.80
11387;DHT22;5748;53.102;8.456;2023-01-24T04:30:33;7.90;65.80
11387;DHT22;5748;53.102;8.456;2023-01-24T04:33:14;7.80;65.70
11387;DHT22;5748;53.102;8.456;2023-01-24T04:35:41;7.90;65.50
11387;DHT22;5748;53.102;8.456;2023-01-24T04:38:11;7.90;65.50
11387;DHT22;5748;53.102;8.456;2023-01-24T04:40:38;7.90;65.40
11387;DHT22;5748;53.102;8.456;2023-01-24T04:43:06;7.90;65.20
11387;DHT22;5748;53.102;8.456;2023-01-24T04:45:33;7.80;65.10
11387;DHT22;5748;53.102;8.456;2023-01-24T04:47:59;7.80;65.10
11387;DHT22;5748;53.102;8.456;2023-01-24T04:50:26;7.90;65.30
11387;DHT22;5748;53.102;8.456;2023-01-24T04:52:53;7.80;65.30
11387;DHT22;5748;53.102;8.456;2023-01-24T04:55:34;7.80;65.20
11387;DHT22;5748;53.102;8.456;2023-01-24T04:58:01;7.70;65.00
11387;DHT22;5748;53.102;8.456;2023-01-24T05:00:28;7.80;65.30
11387;DHT22;5748;53.102;8.456;2023-01-24T05:02:55;7.80;65.40
11387;DHT22;5748;53.102;8.456;2023-01-24T05:05:22;7.80;65.50
11387;DHT22;5748;53.102;8.456;2023-01-24T05:07:49;7.80;65.60
11387;DHT22;5748;53.102;8.456;2023-01-24T05:10:16;7.80;65.50
11387;DHT22;5748;53.102;8.456;2023-01-24T05:12:45;7.80;65.50
11387;DHT22;5748;53.102;8.456;2023-01-24T05:15:12;7.80;65.30
11387;DHT22;5748;53.102;8.456;2023-01-24T05:17:42;7.80;65.40
11387;DHT22;5748;53.102;8.456;2023-01-24T05:20:11;7.80;65.40
11387;DHT22;5748;53.102;8.456;2023-01-24T05:22:39;7.80;65.50
11387;DHT22;5748;53.102;8.456;2023-01-24T05:25:06;8.00;65.60
11387;DHT22;5748;53.102;8.456;2023-01-24T05:27:34;7.80;65.50
11387;DHT22;5748;53.102;8.456;2023-01-24T05:30:04;7.90;65.60
11387;DHT22;5748;53.102;8.456;2023-01-24T05:32:31;7.80;65.50
11387;DHT22;5748;53.102;8.456;2023-01-24T05:34:58;7.80;65.30
11387;DHT22;5748;53.102;8.456;2023-01-24T05:37:25;7.80;65.30
11387;DHT22;5748;53.102;8.456;2023-01-24T05:39:52;7.80;65.30
11387;DHT22;5748;53.102;8.456;2023-01-24T05:42:19;9.50;67.20
11387;DHT22;5748;53.102;8.456;2023-01-24T05:44:47;7.80;65.70
11387;DHT22;5748;53.102;8.456;2023-01-24T05:47:15;7.80;66.60
11387;DHT22;5748;53.102;8.456;2023-01-24T05:49:42;7.80;65.30
11387;DHT22;5748;53.102;8.456;2023-01-24T05:52:21;7.80;65.30
11387;DHT22;5748;53.102;8.456;2023-01-24T05:54:48;7.90;65.20
11387;DHT22;5748;53.102;8.456;2023-01-24T05:57:22;7.80;65.30
11387;DHT22;5748;53.102;8.456;2023-01-24T05:59:49;7.80;65.10
11387;DHT22;5748;53.102;8.456;2023-01-24T06:02:18;7.80;65.10
11387;DHT22;5748;53.102;8.456;2023-01-24T06:04:45;7.90;65.20
11387;DHT22;5748;53.102;8.456;2023-01-24T06:07:12;7.80;65.10
11387;DHT22;5748;53.102;8.456;2023-01-24T06:09:38;8.10;65.40
11387;DHT22;5748;53.102;8.456;2023-01-24T06:12:05;7.80;65.10
11387;DHT22;5748;53.102;8.456;2023-01-24T06:14:32;7.70;65.10
11387;DHT22;5748;53.102;8.456;2023-01-24T06:16:59;7.70;65.00
11387;DHT22;5748;53.102;8.456;2023-01-24T06:19:29;7.80;65.10
11387;DHT22;5748;53.102;8.456;2023-01-24T06:21:59;7.70;65.10
11387;DHT22;5748;53.102;8.456;2023-01-24T06:24:30;8.00;65.40
11387;DHT22;5748;53.102;8.456;2023-01-24T06:26:58;7.70;65.10
11387;DHT22;5748;53.102;8.456;2023-01-24T06:29:25;7.70;65.00
11387;DHT22;5748;53.102;8.456;2023-01-24T06:32:05;7.70;65.10
11387;DHT22;5748;53.102;8.456;2023-01-24T06:35:01;7.70;64.90
11387;DHT22;5748;53.102;8.456;2023-01-24T06:37:41;7.70;64.90
11387;DHT22;5748;53.102;8.456;2023-01-24T06:40:14;7.80;65.10
11387;DHT22;5748;53.102;8.456;2023-01-24T06:42:42;7.70;65.00
11387;DHT22;5748;53.102;8.456;2023-01-24T06:45:10;7.70;65.00
11387;DHT22;5748;53.102;8.456;2023-01-24T06:47:38;7.70;65.00
11387;DHT22;5748;53.102;8.456;2023-01-24T06:50:13;7.70;64.90
11387;DHT22;5748;53.102;8.456;2023-01-24T06:52:47;7.70;65.60
11387;DHT22;5748;53.102;8.456;2023-01-24T06:55:15;7.70;64.90
11387;DHT22;5748;53.102;8.456;2023-01-24T06:57:42;7.60;65.60
11387;DHT22;5748;53.102;8.456;2023-01-24T07:00:13;7.60;64.90
11387;DHT22;5748;53.102;8.456;2023-01-24T07:02:40;7.60;65.10
11387;DHT22;5748;53.102;8.456;2023-01-24T07:05:09;7.60;65.00
11387;DHT22;5748;53.102;8.456;2023-01-24T07:07:36;7.70;65.00
11387;DHT22;5748;53.102;8.456;2023-01-24T07:10:03;7.60;64.90
11387;DHT22;5748;53.102;8.456;2023-01-24T07:12:31;7.70;65.10
11387;DHT22;5748;53.102;8.456;2023-01-24T07:14:57;7.60;65.00
11387;DHT22;5748;53.102;8.456;2023-01-24T07:17:25;7.60;64.90
11387;DHT22;5748;53.102;8.456;2023-01-24T07:20:03;7.70;65.00
11387;DHT22;5748;53.102;8.456;2023-01-24T07:22:34;7.60;64.80
11387;DHT22;5748;53.102;8.456;2023-01-24T07:25:04;7.70;65.00
11387;DHT22;5748;53.102;8.456;2023-01-24T07:27:32;7.60;64.90
11387;DHT22;5748;53.102;8.456;2023-01-24T07:29:59;7.60;64.90
11387;DHT22;5748;53.102;8.456;2023-01-24T07:32:26;7.60;64.80
11387;DHT22;5748;53.102;8.456;2023-01-24T07:34:54;7.60;64.80
11387;DHT22;5748;53.102;8.456;2023-01-24T07:37:21;7.60;64.90
11387;DHT22;5748;53.102;8.456;2023-01-24T07:39:50;7.60;65.10
11387;DHT22;5748;53.102;8.456;2023-01-24T07:42:17;7.60;64.90
11387;DHT22;5748;53.102;8.456;2023-01-24T07:44:44;7.60;64.90
11387;DHT22;5748;53.102;8.456;2023-01-24T07:47:11;7.60;64.90
11387;DHT22;5748;53.102;8.456;2023-01-24T07:49:38;7.50;64.80
11387;DHT22;5748;53.102;8.456;2023-01-24T07:52:05;7.60;65.00
11387;DHT22;5748;53.102;8.456;2023-01-24T07:54:32;7.80;65.10
11387;DHT22;5748;53.102;8.456;2023-01-24T07:57:04;7.60;64.90
11387;DHT22;5748;53.102;8.456;2023-01-24T07:59:31;8.30;65.60
11387;DHT22;5748;53.102;8.456;2023-01-24T08:01:58;7.70;65.00
11387;DHT22;5748;53.102;8.456;2023-01-24T08:04:25;9.50;66.60
11387;DHT22;5748;53.102;8.456;2023-01-24T08:06:52;7.60;64.70
11387;DHT22;5748;53.102;8.456;2023-01-24T08:09:46;7.60;64.70
11387;DHT22;5748;53.102;8.456;2023-01-24T08:12:15;7.60;64.40
11387;DHT22;5748;53.102;8.456;2023-01-24T08:14:42;7.50;64.40
11387;DHT22;5748;53.102;8.456;2023-01-24T08:17:09;7.60;64.60
11387;DHT22;5748;53.102;8.456;2023-01-24T08:19:36;7.50;64.60
11387;DHT22;5748;53.102;8.456;2023-01-24T08:22:05;7.50;64.80
11387;DHT22;5748;53.102;8.456;2023-01-24T08:24:33;7.50;64.80
11387;DHT22;5748;53.102;8.456;2023-01-24T08:27:02;7.50;64.80
11387;DHT22;5748;53.102;8.456;2023-01-24T08:29:32;7.50;64.80
11387;DHT22;5748;53.102;8.456;2023-01-24T08:31:59;7.50;64.80
11387;DHT22;5748;53.102;8.456;2023-01-24T08:34:26;7.50;64.70
11387;DHT22;5748;53.102;8.456;2023-01-24T08:36:53;7.60;64.80
11387;DHT22;5748;53.102;8.456;2023-01-24T08:39:21;7.60;64.80
11387;DHT22;5748;53.102;8.456;2023-01-24T08:41:48;7.60;64.80
11387;DHT22;5748;53.102;8.456;2023-01-24T08:44:15;7.50;64.70
11387;DHT22;5748;53.102;8.456;2023-01-24T08:46:44;7.50;64.60
11387;DHT22;5748;53.102;8.456;2023-01-24T08:49:11;7.50;64.60
11387;DHT22;5748;53.102;8.456;2023-01-24T08:51:38;7.50;64.50
11387;DHT22;5748;53.102;8.456;2023-01-24T08:54:23;7.50;64.40
11387;DHT22;5748;53.102;8.456;2023-01-24T08:56:50;7.50;64.40
11387;DHT22;5748;53.102;8.456;2023-01-24T08:59:17;7.50;64.60
11387;DHT22;5748;53.102;8.456;2023-01-24T09:01:45;7.50;64.70
11387;DHT22;5748;53.102;8.456;2023-01-24T09:04:12;7.50;64.80
11387;DHT22;5748;53.102;8.456;2023-01-24T09:06:39;7.50;64.80
11387;DHT22;5748;53.102;8.456;2023-01-24T09:09:06;7.50;64.80
11387;DHT22;5748;53.102;8.456;2023-01-24T09:11:33;7.50;64.80
11387;DHT22;5748;53.102;8.456;2023-01-24T09:14:01;7.50;64.80
11387;DHT22;5748;53.102;8.456;2023-01-24T09:16:28;7.60;64.90
11387;DHT22;5748;53.102;8.456;2023-01-24T09:18:56;7.50;64.80
11387;DHT22;5748;53.102;8.456;2023-01-24T09:21:23;7.50;64.70
11387;DHT22;5748;53.102;8.456;2023-01-24T09:23:53;7.60;64.90
11387;DHT22;5748;53.102;8.456;2023-01-24T09:26:20;7.50;64.60
11387;DHT22;5748;53.102;8.456;2023-01-24T09:28:47;7.60;64.70
11387;DHT22;5748;53.102;8.456;2023-01-24T09:31:15;7.60;64.60
11387;DHT22;5748;53.102;8.456;2023-01-24T09:33:42;8.30;65.30
11387;DHT22;5748;53.102;8.456;2023-01-24T09:36:11;7.50;64.60
11387;DHT22;5748;53.102;8.456;2023-01-24T09:38:38;7.50;64.50
11387;DHT22;5748;53.102;8.456;2023-01-24T09:41:20;7.50;64.60
11387;DHT22;5748;53.102;8.456;2023-01-24T09:43:58;7.50;64.60
11387;DHT22;5748;53.102;8.456;2023-01-24T09:46:30;7.50;64.60
11387;DHT22;5748;53.102;8.456;2023-01-24T09:49:03;7.50;64.60
11387;DHT22;5748;53.102;8.456;2023-01-24T09:51:41;7.50;64.70
11387;DHT22;5748;53.102;8.456;2023-01-24T09:54:16;8.00;65.20
11387;DHT22;5748;53.102;8.456;2023-01-24T09:56:47;8.00;65.10
11387;DHT22;5748;53.102;8.456;2023-01-24T09:59:22;7.60;64.80
11387;DHT22;5748;53.102;8.456;2023-01-24T10:01:51;7.70;64.90
11387;DHT22;5748;53.102;8.456;2023-01-24T10:04:21;7.60;64.90
11387;DHT22;5748;53.102;8.456;2023-01-24T10:07:27;7.60;65.00
11387;DHT22;5748;53.102;8.456;2023-01-24T10:10:20;7.70;64.90
11387;DHT22;5748;53.102;8.456;2023-01-24T10:13:01;7.70;64.90
11387;DHT22;5748;53.102;8.456;2023-01-24T10:15:42;7.80;64.90
11387;DHT22;5748;53.102;8.456;2023-01-24T10:18:30;7.70;64.60
11387;DHT22;5748;53.102;8.456;2023-01-24T10:21:35;7.70;64.50
11387;DHT22;5748;53.102;8.456;2023-01-24T10:24:14;7.70;64.40
11387;DHT22;5748;53.102;8.456;2023-01-24T10:26:47;7.70;64.50
11387;DHT22;5748;53.102;8.456;2023-01-24T10:29:17;7.80;64.60
11387;DHT22;5748;53.102;8.456;2023-01-24T10:31:53;7.70;64.60
11387;DHT22;5748;53.102;8.456;2023-01-24T10:34:32;7.70;64.60
11387;DHT22;5748;53.102;8.456;2023-01-24T10:37:05;7.70;64.50
11387;DHT22;5748;53.102;8.456;2023-01-24T10:39:34;8.00;64.90
11387;DHT22;5748;53.102;8.456;2023-01-24T10:42:01;7.70;64.40
11387;DHT22;5748;53.102;8.456;2023-01-24T10:44:30;7.70;64.40
11387;DHT22;5748;53.102;8.456;2023-01-24T10:47:28;7.80;64.40
11387;DHT22;5748;53.102;8.456;2023-01-24T10:50:07;7.70;63.90
11387;DHT22;5748;53.102;8.456;2023-01-24T10:52:37;7.70;64.30
11387;DHT22;5748;53.102;8.456;2023-01-24T10:55:23;7.70;64.30
11387;DHT22;5748;53.102;8.456;2023-01-24T10:57:58;7.60;64.00
11387;DHT22;5748;53.102;8.456;2023-01-24T11:00:29;7.60;64.10
11387;DHT22;5748;53.102;8.456;2023-01-24T11:03:16;7.60;64.20
11387;DHT22;5748;53.102;8.456;2023-01-24T11:05:48;7.60;63.90
11387;DHT22;5748;53.102;8.456;2023-01-24T11:08:18;7.60;64.00
11387;DHT22;5748;53.102;8.456;2023-01-24T11:10:51;7.60;64.10
11387;DHT22;5748;53.102;8.456;2023-01-24T11:13:26;7.60;64.20
11387;DHT22;5748;53.102;8.456;2023-01-24T11:16:00;7.60;64.00
11387;DHT22;5748;53.102;8.456;2023-01-24T11:18:31;7.60;64.10
11387;DHT22;5748;53.102;8.456;2023-01-24T11:21:12;7.50;64.00
11387;DHT22;5748;53.102;8.456;2023-01-24T11:23:42;7.50;64.10
11387;DHT22;5748;53.102;8.456;2023-01-24T11:26:23;7.50;64.30
11387;DHT22;5748;53.102;8.456;2023-01-24T11:29:01;7.50;64.10
11387;DHT22;5748;53.102;8.456;2023-01-24T11:31:33;7.50;64.30
11387;DHT22;5748;53.102;8.456;2023-01-24T11:34:23;7.50;64.40
11387;DHT22;5748;53.102;8.456;2023-01-24T11:37:08;7.50;64.20
11387;DHT22;5748;53.102;8.456;2023-01-24T11:39:49;7.70;64.50
11387;DHT22;5748;53.102;8.456;2023-01-24T11:42:30;7.50;64.30
11387;DHT22;5748;53.102;8.456;2023-01-24T11:45:48;7.60;64.30
11387;DHT22;5748;53.102;8.456;2023-01-24T11:48:30;7.60;64.20
11387;DHT22;5748;53.102;8.456;2023-01-24T11:51:06;7.60;64.40
11387;DHT22;5748;53.102;8.456;2023-01-24T11:53:54;7.60;64.40
11387;DHT22;5748;53.102;8.456;2023-01-24T11:56:37;7.60;64.40
11387;DHT22;5748;53.102;8.456;2023-01-24T11:59:30;7.60;64.30
11387;DHT22;5748;53.102;8.456;2023-01-24T12:02:18;7.60;64.10
11387;DHT22;5748;53.102;8.456;2023-01-24T12:05:03;7.60;64.10
11387;DHT22;5748;53.102;8.456;2023-01-24T12:07:45;7.60;64.00
11387;DHT22;5748;53.102;8.456;2023-01-24T12:10:24;7.70;64.30
11387;DHT22;5748;53.102;8.456;2023-01-24T12:13:02;7.60;64.00
11387;DHT22;5748;53.102;8.456;2023-01-24T12:15:38;7.60;64.10
11387;DHT22;5748;53.102;8.456;2023-01-24T12:18:22;7.60;63.90
11387;DHT22;5748;53.102;8.456;2023-01-24T12:21:00;7.50;63.70
11387;DHT22;5748;53.102;8.456;2023-01-24T12:23:39;7.50;63.90
11387;DHT22;5748;53.102;8.456;2023-01-24T12:26:14;7.50;64.90
11387;DHT22;5748;53.102;8.456;2023-01-24T12:28:53;7.50;64.20
11387;DHT22;5748;53.102;8.456;2023-01-24T12:31:32;7.50;63.90
11387;DHT22;5748;53.102;8.456;2023-01-24T12:34:08;7.40;63.90
11387;DHT22;5748;53.102;8.456;2023-01-24T12:36:45;7.40;63.90
11387;DHT22;5748;53.102;8.456;2023-01-24T12:39:19;7.50;63.90
11387;DHT22;5748;53.102;8.456;2023-01-24T12:42:01;9.60;66.00
11387;DHT22;5748;53.102;8.456;2023-01-24T12:44:34;7.30;63.70
11387;DHT22;5748;53.102;8.456;2023-01-24T12:47:15;7.40;64.10
11387;DHT22;5748;53.102;8.456;2023-01-24T12:49:59;7.30;64.00
11387;DHT22;5748;53.102;8.456;2023-01-24T12:52:41;7.30;64.10
11387;DHT22;5748;53.102;8.456;2023-01-24T12:55:13;7.30;64.10
11387;DHT22;5748;53.102;8.456;2023-01-24T12:57:44;7.30;64.40
11387;DHT22;5748;53.102;8.456;2023-01-24T13:00:18;7.30;64.30
11387;DHT22;5748;53.102;8.456;2023-01-24T13:06:04;7.30;63.80
11387;DHT22;5748;53.102;8.456;2023-01-24T13:08:44;7.40;63.90
11387;DHT22;5748;53.102;8.456;2023-01-24T13:11:19;7.40;64.00
11387;DHT22;5748;53.102;8.456;2023-01-24T13:14:05;7.30;63.90
11387;DHT22;5748;53.102;8.456;2023-01-24T13:17:11;7.30;63.70
11387;DHT22;5748;53.102;8.456;2023-01-24T13:20:01;7.30;63.80
11387;DHT22;5748;53.102;8.456;2023-01-24T13:22:46;7.30;64.00
11387;DHT22;5748;53.102;8.456;2023-01-24T13:28:20;7.20;63.80
11387;DHT22;5748;53.102;8.456;2023-01-24T13:30:58;7.20;63.80
11387;DHT22;5748;53.102;8.456;2023-01-24T13:33:37;7.10;63.90
11387;DHT22;5748;53.102;8.456;2023-01-24T13:36:08;7.10;64.00
11387;DHT22;5748;53.102;8.456;2023-01-24T13:38:40;7.20;64.10
11387;DHT22;5748;53.102;8.456;2023-01-24T13:41:14;7.20;64.10
11387;DHT22;5748;53.102;8.456;2023-01-24T13:43:56;7.20;64.20
11387;DHT22;5748;53.102;8.456;2023-01-24T13:46:58;7.10;64.10
11387;DHT22;5748;53.102;8.456;2023-01-24T13:49:38;7.20;64.00
11387;DHT22;5748;53.102;8.456;2023-01-24T13:52:43;7.20;63.90
11387;DHT22;5748;53.102;8.456;2023-01-24T13:58:31;7.20;63.70
11387;DHT22;5748;53.102;8.456;2023-01-24T14:01:01;7.10;63.90
11387;DHT22;5748;53.102;8.456;2023-01-24T14:03:36;7.20;64.00
11387;DHT22;5748;53.102;8.456;2023-01-24T14:06:06;7.20;63.90
11387;DHT22;5748;53.102;8.456;2023-01-24T14:11:38;7.10;63.80
11387;DHT22;5748;53.102;8.456;2023-01-24T14:14:31;7.10;63.90
11387;DHT22;5748;53.102;8.456;2023-01-24T14:17:17;7.10;63.90
11387;DHT22;5748;53.102;8.456;2023-01-24T14:19:54;7.10;64.00
11387;DHT22;5748;53.102;8.456;2023-01-24T14:22:29;7.10;63.80
11387;DHT22;5748;53.102;8.456;2023-01-24T14:25:16;7.00;63.70
11387;DHT22;5748;53.102;8.456;2023-01-24T14:27:57;7.00;63.60
11387;DHT22;5748;53.102;8.456;2023-01-24T14:30:34;7.00;63.60
11387;DHT22;5748;53.102;8.456;2023-01-24T14:33:21;6.90;63.60
11387;DHT22;5748;53.102;8.456;2023-01-24T14:36:05;6.90;63.70
11387;DHT22;5748;53.102;8.456;2023-01-24T14:38:35;6.90;63.80
11387;DHT22;5748;53.102;8.456;2023-01-24T14:41:04;6.90;64.00
11387;DHT22;5748;53.102;8.456;2023-01-24T14:43:36;6.90;63.80
11387;DHT22;5748;53.102;8.456;2023-01-24T14:46:11;6.90;63.90
11387;DHT22;5748;53.102;8.456;2023-01-24T14:48:39;6.90;64.00
11387;DHT22;5748;53.102;8.456;2023-01-24T14:51:13;6.90;64.10
11387;DHT22;5748;53.102;8.456;2023-01-24T14:53:47;6.90;64.20
11387;DHT22;5748;53.102;8.456;2023-01-24T14:56:16;6.90;64.10
11387;DHT22;5748;53.102;8.456;2023-01-24T14:58:44;6.90;64.10
11387;DHT22;5748;53.102;8.456;2023-01-24T15:01:26;6.90;64.10
11387;DHT22;5748;53.102;8.456;2023-01-24T15:03:56;6.90;64.10
11387;DHT22;5748;53.102;8.456;2023-01-24T15:06:24;6.90;64.10
11387;DHT22;5748;53.102;8.456;2023-01-24T15:08:59;6.90;64.10
11387;DHT22;5748;53.102;8.456;2023-01-24T15:11:32;7.00;64.20
11387;DHT22;5748;53.102;8.456;2023-01-24T15:14:03;7.00;64.10
11387;DHT22;5748;53.102;8.456;2023-01-24T15:16:34;7.00;64.10
11387;DHT22;5748;53.102;8.456;2023-01-24T15:19:05;7.00;64.00
11387;DHT22;5748;53.102;8.456;2023-01-24T15:21:38;6.90;63.90
11387;DHT22;5748;53.102;8.456;2023-01-24T15:24:17;6.90;63.90
11387;DHT22;5748;53.102;8.456;2023-01-24T15:26:48;6.90;64.00
11387;DHT22;5748;53.102;8.456;2023-01-24T15:29:49;6.90;64.00
11387;DHT22;5748;53.102;8.456;2023-01-24T15:32:26;6.90;63.90
11387;DHT22;5748;53.102;8.456;2023-01-24T15:35:32;6.80;63.80
11387;DHT22;5748;53.102;8.456;2023-01-24T15:38:17;6.80;63.70
11387;DHT22;5748;53.102;8.456;2023-01-24T15:43:50;6.70;63.80
11387;DHT22;5748;53.102;8.456;2023-01-24T15:46:35;6.70;63.50
11387;DHT22;5748;53.102;8.456;2023-01-24T15:49:30;6.70;63.60
11387;DHT22;5748;53.102;8.456;2023-01-24T15:52:02;6.60;63.70
11387;DHT22;5748;53.102;8.456;2023-01-24T15:54:55;6.60;63.90
11387;DHT22;5748;53.102;8.456;2023-01-24T15:57:26;6.60;63.90
11387;DHT22;5748;53.102;8.456;2023-01-24T15:59:58;6.60;64.00
11387;DHT22;5748;53.102;8.456;2023-01-24T16:02:27;6.50;63.90
11387;DHT22;5748;53.102;8.456;2023-01-24T16:04:54;6.50;63.90
11387;DHT22;5748;53.102;8.456;2023-01-24T16:07:21;6.50;64.00
11387;DHT22;5748;53.102;8.456;2023-01-24T16:09:49;6.60;64.00
11387;DHT22;5748;53.102;8.456;2023-01-24T16:12:19;6.50;64.00
11387;DHT22;5748;53.102;8.456;2023-01-24T16:14:48;6.50;63.90
11387;DHT22;5748;53.102;8.456;2023-01-24T16:17:19;6.40;63.90
11387;DHT22;5748;53.102;8.456;2023-01-24T16:19:48;6.40;63.90
11387;DHT22;5748;53.102;8.456;2023-01-24T16:22:15;6.40;63.90
11387;DHT22;5748;53.102;8.456;2023-01-24T16:24:43;6.40;63.80
11387;DHT22;5748;53.102;8.456;2023-01-24T16:27:12;6.40;64.00
11387;DHT22;5748;53.102;8.456;2023-01-24T16:29:41;6.50;64.10
11387;DHT22;5748;53.102;8.456;2023-01-24T16:32:20;6.40;64.00
11387;DHT22;5748;53.102;8.456;2023-01-24T16:34:48;6.40;64.00
11387;DHT22;5748;53.102;8.456;2023-01-24T16:37:16;6.40;64.10
11387;DHT22;5748;53.102;8.456;2023-01-24T16:39:44;6.40;64.00
11387;DHT22;5748;53.102;8.456;2023-01-24T16:42:14;6.40;64.20
11387;DHT22;5748;53.102;8.456;2023-01-24T16:44:42;6.40;64.20
11387;DHT22;5748;53.102;8.456;2023-01-24T16:47:09;6.20;64.30
11387;DHT22;5748;53.102;8.456;2023-01-24T16:49:38;7.00;65.00
11387;DHT22;5748;53.102;8.456;2023-01-24T16:52:13;6.30;64.20
11387;DHT22;5748;53.102;8.456;2023-01-24T16:54:40;6.40;64.20
11387;DHT22;5748;53.102;8.456;2023-01-24T16:57:07;6.80;64.60
11387;DHT22;5748;53.102;8.456;2023-01-24T16:59:40;7.60;65.30
11387;DHT22;5748;53.102;8.456;2023-01-24T17:02:09;6.60;64.30
11387;DHT22;5748;53.102;8.456;2023-01-24T17:04:51;6.60;64.40